createdAt,value
2022-12-16T00:01:57.239Z,45.92
2022-12-16T00:04:24.117Z,43.53
2022-12-16T00:06:50.524Z,44.17
2022-12-16T00:09:18.120Z,34.58
2022-12-16T00:11:44.613Z,36.92
2022-12-16T00:14:10.961Z,39.63
2022-12-16T00:16:37.363Z,41.22
2022-12-16T00:19:03.850Z,39.70
2022-12-16T00:21:30.418Z,38.95
2022-12-16T00:23:57.370Z,39.58
2022-12-16T00:26:23.985Z,36.95
2022-12-16T00:28:50.698Z,39.13
2022-12-16T00:31:18.643Z,39.70
2022-12-16T00:33:45.605Z,37.97
2022-12-16T00:36:12.024Z,36.83
2022-12-16T00:38:38.589Z,36.05
2022-12-16T00:41:05.677Z,38.05
2022-12-16T00:43:32.420Z,37.95
2022-12-16T00:45:59.447Z,38.20
2022-12-16T00:48:26.033Z,38.28
2022-12-16T00:50:55.041Z,36.80
2022-12-16T00:53:24.552Z,36.53
2022-12-16T00:55:52.657Z,35.58
2022-12-16T00:58:20.278Z,35.83
2022-12-16T01:00:46.789Z,35.90
2022-12-16T01:03:18.013Z,35.55
2022-12-16T01:05:47.650Z,37.38
2022-12-16T01:08:14.013Z,36.30
2022-12-16T01:10:40.369Z,37.97
2022-12-16T01:13:07.020Z,37.65
2022-12-16T01:15:33.564Z,35.20
2022-12-16T01:17:59.969Z,35.60
2022-12-16T01:20:26.503Z,38.38
2022-12-16T01:22:52.856Z,36.58
2022-12-16T01:25:19.250Z,35.55
2022-12-16T01:27:45.890Z,36.22
2022-12-16T01:30:12.808Z,36.22
2022-12-16T01:32:39.200Z,36.72
2022-12-16T01:35:18.128Z,33.92
2022-12-16T01:37:49.976Z,35.15
2022-12-16T01:40:19.634Z,35.60
2022-12-16T01:42:46.144Z,34.33
2022-12-16T01:45:30.232Z,33.40
2022-12-16T01:48:01.325Z,36.13
2022-12-16T01:50:30.339Z,35.95
2022-12-16T01:53:00.072Z,36.58
2022-12-16T01:55:35.964Z,35.28
2022-12-16T01:58:11.529Z,37.45
2022-12-16T02:00:40.279Z,37.92
2022-12-16T02:03:07.959Z,35.38
2022-12-16T02:05:40.307Z,35.70
2022-12-16T02:08:09.557Z,38.75
2022-12-16T02:10:49.661Z,37.15
2022-12-16T02:13:30.828Z,37.20
2022-12-16T02:16:03.497Z,35.83
2022-12-16T02:19:01.490Z,35.22
2022-12-16T02:21:33.471Z,35.60
2022-12-16T02:24:37.791Z,35.72
2022-12-16T02:27:17.626Z,32.35
2022-12-16T02:30:16.641Z,30.52
2022-12-16T02:33:09.256Z,32.13
2022-12-16T02:35:45.157Z,28.35
2022-12-16T02:38:30.704Z,31.58
2022-12-16T02:41:06.680Z,30.20
2022-12-16T02:43:47.208Z,30.27
2022-12-16T02:46:13.765Z,31.30
2022-12-16T02:48:40.074Z,31.92
2022-12-16T02:51:06.702Z,31.55
2022-12-16T02:53:36.075Z,31.17
2022-12-16T02:56:21.028Z,31.80
2022-12-16T02:58:55.224Z,33.05
2022-12-16T03:01:42.694Z,28.67
2022-12-16T03:04:19.721Z,33.85
2022-12-16T03:06:49.615Z,31.02
2022-12-16T03:09:29.543Z,29.38
2022-12-16T03:11:57.719Z,32.63
2022-12-16T03:16:53.941Z,28.02
2022-12-16T03:19:22.626Z,30.05
2022-12-16T03:21:58.447Z,27.02
2022-12-16T03:24:25.726Z,30.50
2022-12-16T03:27:18.725Z,31.00
2022-12-16T03:30:04.864Z,30.33
2022-12-16T03:32:51.912Z,30.45
2022-12-16T03:35:26.895Z,29.37
2022-12-16T03:37:58.719Z,28.13
2022-12-16T03:40:28.117Z,31.55
2022-12-16T03:42:59.391Z,28.00
2022-12-16T03:45:29.369Z,30.17
2022-12-16T03:47:58.522Z,28.25
2022-12-16T03:50:29.546Z,28.20
2022-12-16T03:52:56.279Z,28.85
2022-12-16T03:55:22.951Z,28.48
2022-12-16T03:57:49.856Z,29.88
2022-12-16T04:00:17.496Z,30.48
2022-12-16T04:02:44.528Z,21.65
2022-12-16T04:05:11.022Z,22.63
2022-12-16T04:07:37.343Z,28.50
2022-12-16T04:10:05.174Z,28.60
2022-12-16T04:12:51.177Z,27.63
2022-12-16T04:15:36.130Z,27.35
2022-12-16T04:18:21.139Z,27.73
2022-12-16T04:21:15.399Z,26.55
2022-12-16T04:24:13.958Z,25.83
2022-12-16T04:27:00.535Z,26.85
2022-12-16T04:29:27.503Z,28.58
2022-12-16T04:31:53.925Z,26.90
2022-12-16T04:34:27.307Z,27.70
2022-12-16T04:37:14.888Z,27.48
2022-12-16T04:39:59.930Z,26.10
2022-12-16T04:42:45.156Z,27.33
2022-12-16T04:45:30.322Z,25.02
2022-12-16T04:48:15.945Z,27.02
2022-12-16T04:51:01.299Z,26.23
2022-12-16T04:53:46.512Z,27.42
2022-12-16T04:56:31.285Z,26.73
2022-12-16T04:59:17.715Z,26.60
2022-12-16T05:02:02.876Z,26.13
2022-12-16T05:04:48.201Z,25.92
2022-12-16T05:07:37.969Z,26.33
2022-12-16T05:10:24.722Z,26.75
2022-12-16T05:13:11.919Z,27.02
2022-12-16T05:15:57.109Z,26.85
2022-12-16T05:18:42.319Z,27.70
2022-12-16T05:21:27.253Z,28.48
2022-12-16T05:24:12.352Z,26.05
2022-12-16T05:26:57.188Z,27.17
2022-12-16T05:29:42.194Z,26.38
2022-12-16T05:32:27.339Z,26.48
2022-12-16T05:35:12.311Z,26.35
2022-12-16T05:37:57.407Z,27.45
2022-12-16T05:40:42.405Z,24.42
2022-12-16T05:43:27.194Z,24.38
2022-12-16T05:46:13.240Z,26.35
2022-12-16T05:49:12.193Z,24.13
2022-12-16T05:51:57.070Z,25.40
2022-12-16T05:54:42.076Z,25.38
2022-12-16T05:57:27.455Z,23.90
2022-12-16T06:00:12.499Z,24.00
2022-12-16T06:02:57.703Z,23.33
2022-12-16T06:05:42.797Z,21.73
2022-12-16T06:08:27.558Z,23.65
2022-12-16T06:11:12.598Z,23.88
2022-12-16T06:13:57.655Z,22.98
2022-12-16T06:16:42.803Z,21.55
2022-12-16T06:19:30.439Z,22.45
2022-12-16T06:22:15.200Z,21.05
2022-12-16T06:25:00.231Z,21.02
2022-12-16T06:27:45.448Z,22.27
2022-12-16T06:30:30.715Z,20.92
2022-12-16T06:33:15.517Z,21.98
2022-12-16T06:36:00.205Z,24.83
2022-12-16T06:38:45.033Z,25.55
2022-12-16T06:41:29.677Z,23.17
2022-12-16T06:44:14.456Z,22.27
2022-12-16T06:46:59.716Z,22.63
2022-12-16T06:49:44.810Z,24.67
2022-12-16T06:52:29.889Z,25.77
2022-12-16T06:55:14.932Z,26.38
2022-12-16T06:57:59.985Z,27.45
2022-12-16T07:00:45.265Z,30.00
2022-12-16T07:03:35.547Z,30.83
2022-12-16T07:06:21.124Z,32.97
2022-12-16T07:09:05.937Z,34.50
2022-12-16T07:11:50.790Z,31.58
2022-12-16T07:14:36.931Z,32.45
2022-12-16T07:17:21.594Z,28.20
2022-12-16T07:20:06.547Z,27.88
2022-12-16T07:23:01.005Z,27.38
2022-12-16T07:25:49.257Z,28.45
2022-12-16T07:28:36.312Z,29.40
2022-12-16T07:31:21.540Z,28.00
2022-12-16T07:34:06.335Z,26.88
2022-12-16T07:36:50.995Z,26.38
2022-12-16T07:39:35.787Z,26.20
2022-12-16T07:42:21.067Z,25.95
2022-12-16T07:45:05.724Z,25.35
2022-12-16T07:47:50.706Z,24.90
2022-12-16T07:50:35.801Z,21.95
2022-12-16T07:53:20.706Z,23.00
2022-12-16T07:56:05.857Z,22.13
2022-12-16T07:58:50.592Z,22.52
2022-12-16T08:01:35.916Z,24.33
2022-12-16T08:04:21.092Z,23.95
2022-12-16T08:07:06.163Z,21.92
2022-12-16T08:09:50.992Z,22.05
2022-12-16T08:12:35.992Z,20.67
2022-12-16T08:15:20.705Z,21.17
2022-12-16T08:18:10.078Z,21.02
2022-12-16T08:20:55.747Z,21.65
2022-12-16T08:23:41.202Z,21.88
2022-12-16T08:26:26.640Z,20.75
2022-12-16T08:29:35.160Z,21.77
2022-12-16T08:32:16.812Z,22.75
2022-12-16T08:35:01.561Z,22.85
2022-12-16T08:37:46.499Z,21.65
2022-12-16T08:40:36.040Z,23.65
2022-12-16T08:43:21.495Z,20.75
2022-12-16T08:46:06.366Z,21.77
2022-12-16T08:48:51.514Z,24.30
2022-12-16T08:51:36.468Z,23.45
2022-12-16T08:54:21.344Z,21.88
2022-12-16T08:57:07.419Z,23.23
2022-12-16T08:59:52.313Z,23.33
2022-12-16T09:02:37.565Z,23.10
2022-12-16T09:05:22.973Z,23.48
2022-12-16T09:08:07.902Z,23.73
2022-12-16T09:10:52.990Z,23.48
2022-12-16T09:13:40.320Z,23.75
2022-12-16T09:16:25.819Z,24.13
2022-12-16T09:19:10.991Z,23.30
2022-12-16T09:21:55.767Z,22.95
2022-12-16T09:24:40.968Z,24.17
2022-12-16T09:27:25.955Z,28.25
2022-12-16T09:30:11.046Z,25.23
2022-12-16T09:33:03.008Z,23.20
2022-12-16T09:35:48.383Z,23.52
2022-12-16T09:38:33.935Z,22.05
2022-12-16T09:41:44.806Z,23.13
2022-12-16T09:44:38.613Z,22.20
2022-12-16T09:47:29.610Z,21.95
2022-12-16T09:50:14.948Z,21.75
2022-12-16T09:53:05.215Z,22.48
2022-12-16T09:55:55.496Z,20.85
2022-12-16T09:58:43.603Z,21.30
2022-12-16T10:04:17.914Z,19.52
2022-12-16T10:07:10.093Z,20.27
2022-12-16T10:10:23.206Z,20.15
2022-12-16T10:13:38.692Z,19.25
2022-12-16T10:16:26.722Z,21.30
2022-12-16T10:23:09.210Z,20.42
2022-12-16T10:26:01.333Z,20.55
2022-12-16T10:29:03.579Z,20.73
2022-12-16T10:31:49.160Z,19.55
2022-12-16T10:34:38.839Z,21.67
2022-12-16T10:37:24.547Z,22.58
2022-12-16T10:40:19.609Z,20.83
2022-12-16T10:43:15.785Z,22.42
2022-12-16T10:46:09.296Z,19.48
2022-12-16T10:48:56.492Z,20.30
2022-12-16T10:51:46.103Z,20.58
2022-12-16T10:54:40.012Z,20.25
2022-12-16T10:57:45.950Z,20.17
2022-12-16T11:00:40.169Z,20.65
2022-12-16T11:03:40.553Z,20.67
2022-12-16T11:06:27.343Z,20.08
2022-12-16T11:09:12.668Z,21.67
2022-12-16T11:11:57.795Z,21.08
2022-12-16T11:15:05.405Z,20.10
2022-12-16T11:17:49.586Z,22.80
2022-12-16T11:20:42.130Z,22.27
2022-12-16T11:23:41.473Z,22.48
2022-12-16T11:26:37.617Z,21.13
2022-12-16T11:29:23.242Z,21.27
2022-12-16T11:32:16.007Z,21.33
2022-12-16T11:35:04.786Z,19.08
2022-12-16T11:37:50.805Z,18.83
2022-12-16T11:40:37.428Z,18.52
2022-12-16T11:43:24.172Z,19.20
2022-12-16T11:46:13.864Z,18.02
2022-12-16T11:49:11.416Z,17.42
2022-12-16T11:52:21.229Z,16.45
2022-12-16T11:55:35.776Z,15.63
2022-12-16T11:58:41.798Z,17.38
2022-12-16T12:01:43.165Z,14.25
2022-12-16T12:04:30.785Z,12.00
2022-12-16T12:07:32.188Z,13.73
2022-12-16T12:10:33.804Z,13.05
2022-12-16T12:13:23.338Z,13.60
2022-12-16T12:16:19.927Z,12.80
2022-12-16T12:19:20.238Z,13.10
2022-12-16T12:22:41.089Z,14.25
2022-12-16T12:25:40.380Z,11.90
2022-12-16T12:28:40.898Z,13.02
2022-12-16T12:31:48.464Z,11.70
2022-12-16T12:34:39.657Z,11.18
2022-12-16T12:37:28.375Z,11.50
2022-12-16T12:40:32.208Z,11.52
2022-12-16T12:43:49.165Z,12.50
2022-12-16T12:47:28.720Z,11.23
2022-12-16T12:50:25.863Z,12.40
2022-12-16T12:53:28.075Z,11.87
2022-12-16T12:56:32.476Z,11.52
2022-12-16T12:59:23.092Z,11.38
2022-12-16T13:02:11.541Z,11.90
2022-12-16T13:04:58.478Z,10.70
2022-12-16T13:07:43.350Z,12.30
2022-12-16T13:10:43.775Z,11.80
2022-12-16T13:13:35.733Z,11.13
2022-12-16T13:16:22.795Z,11.27
2022-12-16T13:19:58.872Z,11.20
2022-12-16T13:22:55.771Z,11.48
2022-12-16T13:25:50.032Z,12.80
2022-12-16T13:29:15.146Z,11.88
2022-12-16T13:32:22.771Z,11.15
2022-12-16T13:35:18.938Z,11.30
2022-12-16T13:38:15.881Z,11.52
2022-12-16T13:41:08.997Z,11.27
2022-12-16T13:44:19.486Z,10.73
2022-12-16T13:47:10.299Z,11.10
2022-12-16T13:49:55.429Z,11.23
2022-12-16T13:52:58.855Z,11.15
2022-12-16T13:55:47.299Z,10.82
2022-12-16T13:58:56.717Z,12.23
2022-12-16T14:01:56.747Z,11.68
2022-12-16T14:05:03.468Z,11.43
2022-12-16T14:07:52.942Z,11.82
2022-12-16T14:10:52.902Z,11.13
2022-12-16T14:14:00.778Z,11.40
2022-12-16T14:17:07.541Z,11.00
2022-12-16T14:19:57.100Z,11.02
2022-12-16T14:23:01.176Z,11.93
2022-12-16T14:25:46.286Z,11.32
2022-12-16T14:28:58.850Z,10.90
2022-12-16T14:31:52.710Z,11.38
2022-12-16T14:34:53.876Z,12.13
2022-12-16T14:37:42.653Z,12.57
2022-12-16T14:40:40.391Z,12.10
2022-12-16T14:43:44.586Z,14.48
2022-12-16T14:46:50.077Z,13.88
2022-12-16T14:49:44.520Z,14.10
2022-12-16T14:52:39.768Z,13.30
2022-12-16T14:55:40.239Z,14.63
2022-12-16T14:58:29.867Z,16.30
2022-12-16T15:01:19.449Z,17.90
2022-12-16T15:04:09.145Z,16.40
2022-12-16T15:07:00.077Z,15.85
2022-12-16T15:09:55.870Z,15.98
2022-12-16T15:12:44.872Z,16.92
2022-12-16T15:15:50.993Z,15.68
2022-12-16T15:18:40.789Z,16.98
2022-12-16T15:21:26.693Z,17.23
2022-12-16T15:24:11.883Z,17.92
2022-12-16T15:26:57.058Z,19.23
2022-12-16T15:29:53.038Z,20.13
2022-12-16T15:32:56.539Z,19.95
2022-12-16T15:35:44.833Z,19.73
2022-12-16T15:38:52.403Z,23.33
2022-12-16T15:41:52.176Z,21.40
2022-12-16T15:44:39.581Z,20.90
2022-12-16T15:47:38.108Z,24.48
2022-12-16T15:50:24.389Z,22.67
2022-12-16T15:53:09.541Z,24.55
2022-12-16T15:56:05.026Z,23.92
2022-12-16T15:58:53.511Z,24.02
2022-12-16T16:04:46.636Z,20.57
2022-12-16T16:07:36.185Z,21.60
2022-12-16T16:10:32.962Z,23.85
2022-12-16T16:13:18.121Z,26.35
2022-12-16T16:16:03.676Z,25.40
2022-12-16T16:18:49.232Z,26.10
2022-12-16T16:21:34.390Z,26.83
2022-12-16T16:24:19.398Z,23.90
2022-12-16T16:27:04.727Z,29.40
2022-12-16T16:29:49.873Z,28.30
2022-12-16T16:32:35.066Z,25.92
2022-12-16T16:35:20.301Z,22.73
2022-12-16T16:38:07.073Z,27.02
2022-12-16T16:41:02.472Z,26.92
2022-12-16T16:43:47.904Z,27.90
2022-12-16T16:46:39.374Z,30.02
2022-12-16T16:49:29.027Z,28.80
2022-12-16T16:52:13.996Z,28.92
2022-12-16T16:54:59.005Z,27.20
2022-12-16T16:57:45.994Z,28.50
2022-12-16T17:00:31.353Z,26.08
2022-12-16T17:03:16.384Z,27.58
2022-12-16T17:06:01.582Z,29.83
2022-12-16T17:08:46.713Z,30.23
2022-12-16T17:11:40.848Z,30.40
2022-12-16T17:14:31.675Z,30.38
2022-12-16T17:17:16.577Z,29.60
2022-12-16T17:20:01.932Z,29.40
2022-12-16T17:22:47.073Z,33.10
2022-12-16T17:25:32.562Z,32.95
2022-12-16T17:28:18.311Z,31.83
2022-12-16T17:31:03.374Z,30.80
2022-12-16T17:33:48.353Z,31.95
2022-12-16T17:36:35.953Z,31.00
2022-12-16T17:39:22.430Z,29.92
2022-12-16T17:42:07.621Z,27.58
2022-12-16T17:44:52.726Z,30.02
2022-12-16T17:47:38.274Z,32.20
2022-12-16T17:50:24.291Z,31.27
2022-12-16T17:53:14.246Z,31.40
2022-12-16T17:55:59.171Z,31.27
2022-12-16T17:58:52.287Z,31.42
2022-12-16T18:01:37.949Z,33.78
2022-12-16T18:04:23.530Z,35.78
2022-12-16T18:07:09.317Z,33.38
2022-12-16T18:09:54.333Z,34.22
2022-12-16T18:12:40.260Z,35.22
2022-12-16T18:15:25.505Z,35.63
2022-12-16T18:18:10.316Z,36.53
2022-12-16T18:20:55.535Z,37.88
2022-12-16T18:23:40.832Z,35.45
2022-12-16T18:26:27.015Z,38.67
2022-12-16T18:29:11.794Z,42.22
2022-12-16T18:31:56.513Z,40.15
2022-12-16T18:34:41.511Z,37.97
2022-12-16T18:37:29.603Z,38.95
2022-12-16T18:42:59.060Z,37.67
2022-12-16T18:45:44.040Z,40.30
2022-12-16T18:48:29.247Z,38.65
2022-12-16T18:51:16.495Z,39.08
2022-12-16T18:54:01.612Z,41.75
2022-12-16T18:56:46.844Z,36.70
2022-12-16T18:59:32.165Z,37.03
2022-12-16T19:02:17.344Z,40.20
2022-12-16T19:05:02.359Z,38.80
2022-12-16T19:07:46.970Z,42.05
2022-12-16T19:10:31.778Z,41.00
2022-12-16T19:13:17.504Z,39.95
2022-12-16T19:16:12.292Z,40.35
2022-12-16T19:18:57.140Z,42.47
2022-12-16T19:21:43.664Z,50.83
2022-12-16T19:24:30.587Z,49.00
2022-12-16T19:27:15.692Z,46.63
2022-12-16T19:30:00.711Z,43.63
2022-12-16T19:32:45.948Z,37.08
2022-12-16T19:35:31.139Z,41.50
2022-12-16T19:38:16.287Z,40.28
2022-12-16T19:41:11.959Z,41.88
2022-12-16T19:44:01.890Z,38.47
2022-12-16T19:46:50.576Z,36.22
2022-12-16T19:49:40.779Z,42.03
2022-12-16T19:52:28.873Z,37.42
2022-12-16T19:55:17.194Z,37.65
2022-12-16T19:58:02.658Z,45.63
2022-12-16T20:00:47.735Z,40.78
2022-12-16T20:03:36.687Z,40.05
2022-12-16T20:06:24.115Z,41.38
2022-12-16T20:09:10.052Z,44.33
2022-12-16T20:11:55.573Z,38.10
2022-12-16T20:14:40.988Z,53.80
2022-12-16T20:17:26.667Z,49.28
2022-12-16T20:20:11.368Z,50.80
2022-12-16T20:22:56.548Z,51.90
2022-12-16T20:25:41.176Z,52.10
2022-12-16T20:28:26.258Z,49.92
2022-12-16T20:31:11.265Z,52.70
2022-12-16T20:34:12.721Z,52.95
2022-12-16T20:36:57.929Z,56.95
2022-12-16T20:39:44.670Z,47.58
2022-12-16T20:42:32.790Z,44.53
2022-12-16T20:45:17.838Z,45.63
2022-12-16T20:48:02.818Z,43.33
2022-12-16T20:50:47.802Z,44.88
2022-12-16T20:53:32.902Z,42.67
2022-12-16T20:56:21.685Z,48.67
2022-12-16T20:59:07.931Z,50.83
2022-12-16T21:02:21.597Z,48.40
2022-12-16T21:04:59.869Z,50.22
2022-12-16T21:07:44.669Z,47.10
2022-12-16T21:10:29.664Z,52.47
2022-12-16T21:13:14.355Z,56.03
2022-12-16T21:15:59.263Z,58.80
2022-12-16T21:18:44.383Z,56.40
2022-12-16T21:21:29.563Z,57.65
2022-12-16T21:24:14.664Z,53.83
2022-12-16T21:26:59.418Z,51.83
2022-12-16T21:29:44.262Z,56.38
2022-12-16T21:32:29.417Z,60.50
2022-12-16T21:35:14.471Z,59.28
2022-12-16T21:37:59.502Z,59.85
2022-12-16T21:40:44.418Z,58.50
2022-12-16T21:43:29.437Z,61.35
2022-12-16T21:46:29.147Z,63.20
2022-12-16T21:49:14.139Z,59.80
2022-12-16T21:51:59.112Z,63.97
2022-12-16T21:54:43.903Z,63.95
2022-12-16T21:57:30.711Z,63.97
2022-12-16T22:00:15.887Z,65.15
2022-12-16T22:03:00.918Z,63.75
2022-12-16T22:05:50.168Z,69.78
2022-12-16T22:08:35.236Z,66.32
2022-12-16T22:11:27.351Z,57.95
2022-12-16T22:14:12.547Z,64.35
2022-12-16T22:16:57.652Z,65.47
2022-12-16T22:19:42.361Z,60.08
2022-12-16T22:22:27.276Z,63.08
2022-12-16T22:25:14.524Z,64.05
2022-12-16T22:27:59.740Z,60.38
2022-12-16T22:30:44.811Z,59.00
2022-12-16T22:33:30.476Z,59.53
2022-12-16T22:36:26.904Z,57.00
2022-12-16T22:39:11.662Z,56.38
2022-12-16T22:41:56.452Z,56.08
2022-12-16T22:44:41.260Z,57.83
2022-12-16T22:47:26.217Z,56.72
2022-12-16T22:50:11.025Z,52.97
2022-12-16T22:52:56.323Z,48.72
2022-12-16T22:55:41.402Z,50.28
2022-12-16T22:58:27.875Z,52.47
2022-12-16T23:01:12.927Z,51.53
2022-12-16T23:03:58.005Z,50.40
2022-12-16T23:06:43.002Z,50.88
2022-12-16T23:09:27.855Z,50.08
2022-12-16T23:12:13.136Z,55.45
2022-12-16T23:14:58.293Z,54.70
2022-12-16T23:17:43.692Z,52.33
2022-12-16T23:20:29.127Z,52.15
2022-12-16T23:23:14.831Z,52.33
2022-12-16T23:25:59.525Z,52.75
2022-12-16T23:28:44.319Z,52.80
2022-12-16T23:31:29.149Z,53.20
2022-12-16T23:34:14.082Z,57.20
2022-12-16T23:36:58.879Z,51.42
2022-12-16T23:39:43.630Z,55.42
2022-12-16T23:42:28.850Z,57.53
2022-12-16T23:45:14.049Z,52.10
2022-12-16T23:47:59.027Z,55.40
2022-12-16T23:50:44.147Z,55.35
2022-12-16T23:53:30.341Z,55.72
2022-12-16T23:56:17.399Z,53.22
2022-12-16T23:59:03.161Z,54.88
